createdAt,value
2019-05-22T00:04:18.982Z,12.63
2019-05-22T00:09:23.968Z,12.60
2019-05-22T00:14:28.202Z,12.57
2019-05-22T00:19:31.765Z,12.59
2019-05-22T00:24:37.119Z,12.57
2019-05-22T00:29:43.167Z,12.56
2019-05-22T00:34:49.218Z,12.54
2019-05-22T00:39:54.384Z,12.52
2019-05-22T00:44:58.959Z,12.50
2019-05-22T00:50:04.131Z,12.47
2019-05-22T00:55:09.193Z,12.44
2019-05-22T01:00:16.283Z,12.42
2019-05-22T01:05:21.802Z,12.41
2019-05-22T01:10:26.771Z,12.39
2019-05-22T01:15:31.876Z,12.38
2019-05-22T01:20:37.030Z,12.36
2019-05-22T01:25:42.030Z,12.36
2019-05-22T01:31:03.475Z,12.36
2019-05-22T01:36:08.814Z,12.33
2019-05-22T01:41:32.679Z,12.31
2019-05-22T01:46:39.517Z,12.30
2019-05-22T01:51:44.680Z,12.29
2019-05-22T01:56:49.622Z,12.27
2019-05-22T02:01:53.321Z,12.24
2019-05-22T02:06:57.145Z,12.21
2019-05-22T02:12:04.935Z,12.20
2019-05-22T02:17:08.843Z,12.20
2019-05-22T02:22:13.124Z,12.19
2019-05-22T02:27:18.512Z,12.15
2019-05-22T02:32:23.498Z,12.09
2019-05-22T02:37:27.138Z,12.12
2019-05-22T02:42:31.034Z,12.10
2019-05-22T02:47:34.797Z,12.09
2019-05-22T02:52:38.150Z,12.09
2019-05-22T02:57:42.153Z,12.08
2019-05-22T03:02:57.720Z,12.07
2019-05-22T03:08:01.427Z,12.07
2019-05-22T03:13:06.325Z,12.08
2019-05-22T03:18:10.459Z,12.08
2019-05-22T03:23:22.571Z,12.08
2019-05-22T03:28:27.069Z,12.08
2019-05-22T03:33:30.810Z,12.07
2019-05-22T03:38:34.571Z,12.06
2019-05-22T03:43:37.919Z,12.06
2019-05-22T03:48:41.651Z,12.00
2019-05-22T03:53:46.452Z,11.99
2019-05-22T03:58:51.065Z,11.95
2019-05-22T04:03:55.844Z,11.87
2019-05-22T04:09:04.088Z,11.84
2019-05-22T04:14:07.450Z,11.80
2019-05-22T04:19:10.901Z,11.75
2019-05-22T04:24:15.577Z,11.73
2019-05-22T04:29:19.555Z,11.67
2019-05-22T04:34:23.444Z,11.64
2019-05-22T04:39:27.550Z,11.64
2019-05-22T04:44:31.008Z,11.65
2019-05-22T04:49:34.638Z,11.65
2019-05-22T04:54:38.186Z,11.66
2019-05-22T04:59:41.529Z,11.69
2019-05-22T05:04:45.200Z,11.75
2019-05-22T05:09:48.704Z,11.75
2019-05-22T05:14:52.500Z,11.79
2019-05-22T05:19:55.866Z,11.81
2019-05-22T05:24:59.332Z,11.82
2019-05-22T05:30:03.037Z,11.82
2019-05-22T05:35:10.273Z,11.86
2019-05-22T05:40:38.613Z,11.84
2019-05-22T05:45:43.286Z,11.86
2019-05-22T05:51:09.546Z,11.90
2019-05-22T05:56:14.802Z,11.98
2019-05-22T06:01:24.127Z,11.98
2019-05-22T06:06:33.632Z,12.04
2019-05-22T06:11:53.005Z,12.02
2019-05-22T06:17:31.689Z,12.08
2019-05-22T06:22:35.075Z,12.12
2019-05-22T06:27:42.739Z,12.15
2019-05-22T06:33:08.950Z,12.22
2019-05-22T06:38:35.162Z,12.23
2019-05-22T06:43:41.675Z,12.24
2019-05-22T06:48:45.650Z,12.32
2019-05-22T06:53:49.174Z,12.39
2019-05-22T06:58:52.564Z,12.42
2019-05-22T07:03:55.985Z,12.42
2019-05-22T07:08:59.316Z,12.44
2019-05-22T07:14:03.049Z,12.58
2019-05-22T07:19:07.579Z,12.60
2019-05-22T07:24:11.244Z,12.67
2019-05-22T07:29:15.026Z,12.74
2019-05-22T07:34:18.576Z,12.80
2019-05-22T07:39:22.087Z,12.91
2019-05-22T07:44:25.542Z,13.06
2019-05-22T07:49:29.229Z,12.85
2019-05-22T07:54:33.170Z,13.02
2019-05-22T07:59:37.160Z,13.05
2019-05-22T08:04:41.969Z,13.10
2019-05-22T08:09:45.696Z,13.16
2019-05-22T08:14:49.992Z,13.22
2019-05-22T08:19:53.495Z,13.46
2019-05-22T08:24:56.989Z,13.52
2019-05-22T08:30:00.429Z,13.28
2019-05-22T08:35:09.171Z,13.22
2019-05-22T08:40:14.166Z,13.03
2019-05-22T08:45:18.807Z,12.98
2019-05-22T08:50:23.823Z,13.03
2019-05-22T08:55:27.338Z,12.91
2019-05-22T09:00:30.927Z,13.12
2019-05-22T09:05:34.401Z,13.24
2019-05-22T09:10:37.788Z,13.17
2019-05-22T09:15:41.498Z,13.10
2019-05-22T09:20:49.406Z,13.00
2019-05-22T09:25:50.424Z,12.84
2019-05-22T09:30:54.078Z,12.81
2019-05-22T09:35:57.882Z,12.78
2019-05-22T09:41:03.362Z,12.73
2019-05-22T09:46:08.403Z,12.77
2019-05-22T09:51:11.807Z,12.88
2019-05-22T09:56:15.436Z,12.93
2019-05-22T10:01:19.490Z,12.90
2019-05-22T10:06:22.999Z,12.73
2019-05-22T10:11:27.442Z,12.78
2019-05-22T10:16:31.007Z,12.72
2019-05-22T10:21:34.692Z,12.70
2019-05-22T10:26:38.166Z,12.94
2019-05-22T10:31:41.788Z,12.95
2019-05-22T10:36:45.209Z,13.10
2019-05-22T10:41:48.560Z,13.15
2019-05-22T10:46:52.366Z,13.13
2019-05-22T10:51:55.809Z,13.17
2019-05-22T10:56:59.334Z,13.42
2019-05-22T11:02:03.310Z,13.46
2019-05-22T11:07:07.871Z,13.60
2019-05-22T11:12:12.236Z,13.55
2019-05-22T11:17:17.072Z,13.70
2019-05-22T11:22:20.494Z,13.92
2019-05-22T11:27:24.140Z,13.96
2019-05-22T11:32:27.564Z,14.01
2019-05-22T11:37:31.080Z,14.29
2019-05-22T11:42:34.863Z,14.27
2019-05-22T11:47:39.179Z,14.31
2019-05-22T11:52:42.668Z,14.26
2019-05-22T11:57:47.918Z,14.34
2019-05-22T12:02:53.006Z,14.77
2019-05-22T12:07:56.965Z,14.95
2019-05-22T12:13:00.469Z,15.42
2019-05-22T12:18:05.000Z,15.29
2019-05-22T12:23:08.417Z,15.44
2019-05-22T12:28:12.117Z,15.07
2019-05-22T12:33:15.519Z,14.82
2019-05-22T12:38:21.832Z,14.53
2019-05-22T12:43:26.543Z,14.53
2019-05-22T12:48:30.338Z,14.21
2019-05-22T12:53:34.202Z,14.20
2019-05-22T12:58:40.103Z,13.92
2019-05-22T13:03:44.401Z,13.73
2019-05-22T13:08:47.745Z,13.60
2019-05-22T13:13:51.283Z,13.59
2019-05-22T13:18:54.947Z,13.44
2019-05-22T13:24:00.672Z,13.41
2019-05-22T13:29:07.129Z,13.36
2019-05-22T13:34:12.820Z,13.24
2019-05-22T13:39:16.986Z,13.35
2019-05-22T13:44:21.276Z,13.61
2019-05-22T13:49:26.612Z,13.42
2019-05-22T13:54:31.207Z,13.60
2019-05-22T13:59:35.192Z,13.78
2019-05-22T14:04:38.924Z,13.67
2019-05-22T14:09:43.189Z,14.05
2019-05-22T14:14:46.704Z,14.05
2019-05-22T14:19:50.136Z,14.03
2019-05-22T14:24:53.627Z,14.07
2019-05-22T14:29:57.494Z,14.09
2019-05-22T14:35:01.177Z,14.06
2019-05-22T14:40:08.135Z,14.15
2019-05-22T14:45:11.895Z,14.11
2019-05-22T14:50:15.409Z,14.11
2019-05-22T14:55:18.765Z,14.14
2019-05-22T15:00:24.567Z,14.12
2019-05-22T15:05:28.196Z,14.16
2019-05-22T15:10:32.029Z,14.25
2019-05-22T15:15:40.154Z,14.30
2019-05-22T15:20:42.684Z,14.30
2019-05-22T15:25:46.152Z,14.25
2019-05-22T15:30:49.664Z,14.43
2019-05-22T15:35:54.209Z,14.49
2019-05-22T15:40:57.654Z,14.39
2019-05-22T15:46:01.395Z,14.30
2019-05-22T15:51:09.083Z,14.14
2019-05-22T15:56:12.494Z,14.11
2019-05-22T16:01:17.737Z,14.19
2019-05-22T16:06:23.493Z,14.06
2019-05-22T16:11:27.551Z,14.05
2019-05-22T16:16:32.246Z,13.98
2019-05-22T16:21:38.566Z,13.90
2019-05-22T16:26:42.627Z,13.88
2019-05-22T16:31:46.595Z,13.89
2019-05-22T16:36:50.234Z,13.86
2019-05-22T16:41:54.197Z,13.77
2019-05-22T16:46:58.989Z,13.71
2019-05-22T16:52:04.149Z,13.65
2019-05-22T16:57:08.624Z,13.58
2019-05-22T17:02:14.082Z,13.53
2019-05-22T17:07:18.300Z,13.48
2019-05-22T17:12:23.329Z,13.49
2019-05-22T17:17:26.751Z,13.48
2019-05-22T17:22:30.114Z,13.45
2019-05-22T17:27:33.578Z,13.42
2019-05-22T17:32:38.094Z,13.36
2019-05-22T17:37:42.351Z,13.33
2019-05-22T17:42:46.178Z,13.29
2019-05-22T17:47:51.339Z,13.24
2019-05-22T17:52:55.275Z,13.24
2019-05-22T17:57:59.623Z,13.19
2019-05-22T18:03:03.207Z,13.18
2019-05-22T18:08:07.222Z,13.15
2019-05-22T18:13:12.148Z,13.17
2019-05-22T18:18:15.879Z,13.16
2019-05-22T18:23:19.233Z,13.12
2019-05-22T18:28:22.980Z,13.09
2019-05-22T18:33:26.425Z,13.05
2019-05-22T18:38:29.817Z,13.02
2019-05-22T18:43:33.730Z,12.97
2019-05-22T18:48:37.165Z,12.98
2019-05-22T18:53:40.521Z,12.95
2019-05-22T18:58:44.157Z,12.92
2019-05-22T19:03:47.704Z,12.89
2019-05-22T19:08:52.245Z,12.87
2019-05-22T19:13:55.663Z,12.86
2019-05-22T19:18:59.012Z,12.82
2019-05-22T19:24:02.472Z,12.74
2019-05-22T19:29:06.071Z,12.73
2019-05-22T19:34:11.035Z,12.64
2019-05-22T19:39:14.683Z,12.61
2019-05-22T19:44:18.321Z,12.54
2019-05-22T19:49:23.724Z,12.51
2019-05-22T19:54:27.380Z,12.48
2019-05-22T19:59:32.281Z,12.41
2019-05-22T20:04:36.275Z,12.41
2019-05-22T20:09:40.144Z,12.36
2019-05-22T20:14:43.704Z,12.34
2019-05-22T20:19:47.255Z,12.24
2019-05-22T20:24:51.098Z,12.18
2019-05-22T20:29:55.077Z,12.10
2019-05-22T20:34:59.322Z,12.02
2019-05-22T20:40:04.025Z,11.97
2019-05-22T20:45:09.651Z,11.92
2019-05-22T20:50:13.962Z,11.81
2019-05-22T20:55:19.468Z,11.77
2019-05-22T21:00:25.775Z,11.68
2019-05-22T21:05:29.372Z,11.57
2019-05-22T21:10:33.454Z,11.49
2019-05-22T21:15:36.995Z,11.40
2019-05-22T21:20:54.195Z,11.37
2019-05-22T21:25:48.150Z,11.29
2019-05-22T21:30:54.119Z,11.20
2019-05-22T21:35:57.635Z,11.09
2019-05-22T21:41:01.313Z,10.99
2019-05-22T21:46:05.610Z,10.92
2019-05-22T21:51:09.987Z,10.86
2019-05-22T21:56:13.548Z,10.84
2019-05-22T22:01:21.221Z,10.89
2019-05-22T22:06:24.926Z,10.87
2019-05-22T22:11:28.835Z,10.85
2019-05-22T22:16:32.261Z,10.87
2019-05-22T22:21:37.615Z,10.79
2019-05-22T22:26:41.719Z,10.68
2019-05-22T22:31:46.341Z,10.55
2019-05-22T22:36:50.266Z,10.35
2019-05-22T22:41:55.836Z,10.21
2019-05-22T22:47:01.244Z,9.99
2019-05-22T22:52:07.724Z,9.81
2019-05-22T22:57:11.898Z,9.67
2019-05-22T23:02:17.316Z,9.54
2019-05-22T23:07:22.135Z,9.53
2019-05-22T23:12:26.083Z,9.53
2019-05-22T23:17:31.059Z,9.41
2019-05-22T23:22:34.613Z,9.16
2019-05-22T23:27:39.082Z,9.09
2019-05-22T23:32:43.152Z,9.08
2019-05-22T23:37:46.484Z,9.05
2019-05-22T23:42:50.497Z,8.94
2019-05-22T23:47:59.851Z,8.73
2019-05-22T23:53:04.140Z,8.68
2019-05-22T23:58:10.027Z,8.76
